sensor_id;sensor_type;location;lat;lon;timestamp;P1;P2;P0
45312;PMS7003;68267;51.540;5.854;2023-09-18T00:08:15;15.49;17.34;16.47
45312;PMS7003;68267;51.540;5.854;2023-09-18T00:21:34;16.81;16.9;16.36
45312;PMS7003;68267;51.540;5.854;2023-09-18T00:34:56;17.05;16.8;16.03
45312;PMS7003;68267;51.540;5.854;2023-09-18T00:48:16;13.45;15.49;14.51
45312;PMS7003;68267;51.540;5.854;2023-09-18T01:01:36;12.97;15.05;14.4
45312;PMS7003;68267;51.540;5.854;2023-09-18T01:14:56;12.85;13.96;13.74
45312;PMS7003;68267;51.540;5.854;2023-09-18T01:28:15;12.85;13.42;12.65
45312;PMS7003;68267;51.540;5.854;2023-09-18T01:41:35;11.29;13.53;12.44
45312;PMS7003;68267;51.540;5.854;2023-09-18T01:54:55;12.13;13.31;12.44
45312;PMS7003;68267;51.540;5.854;2023-09-18T02:08:15;11.89;12.54;11.35
45312;PMS7003;68267;51.540;5.854;2023-09-18T02:21:34;9.37;11.78;11.02
45312;PMS7003;68267;51.540;5.854;2023-09-18T02:34:54;8.53;11.02;9.93
45312;PMS7003;68267;51.540;5.854;2023-09-18T02:48:16;9.13;10.47;9.06
45312;PMS7003;68267;51.540;5.854;2023-09-18T03:01:36;13.93;9.38;8.73
45312;PMS7003;68267;51.540;5.854;2023-09-18T03:14:56;21.85;10.15;9.06
45312;PMS7003;68267;51.540;5.854;2023-09-18T03:28:15;6.97;9.6;8.73
45312;PMS7003;68267;51.540;5.854;2023-09-18T03:41:35;7.33;9.93;8.73
45312;PMS7003;68267;51.540;5.854;2023-09-18T03:54:55;8.17;8.95;7.75
45312;PMS7003;68267;51.540;5.854;2023-09-18T04:08:14;6.01;8.73;7.09
45312;PMS7003;68267;51.540;5.854;2023-09-18T04:21:34;8.05;8.73;6.99
45312;PMS7003;68267;51.540;5.854;2023-09-18T04:34:54;3.85;6.77;6.22
45312;PMS7003;68267;51.540;5.854;2023-09-18T04:48:14;6.73;6.99;5.79
45312;PMS7003;68267;51.540;5.854;2023-09-18T05:01:33;9.01;6.44;5.46
45312;PMS7003;68267;51.540;5.854;2023-09-18T05:14:56;3.12;6.11;5.46
45312;PMS7003;68267;51.540;5.854;2023-09-18T05:41:35;6.85;5.35;4.15
45312;PMS7003;68267;51.540;5.854;2023-09-18T05:54:55;6.01;4.26;4.04
45312;PMS7003;68267;51.540;5.854;2023-09-18T06:08:14;2.28;5.35;4.8
45312;PMS7003;68267;51.540;5.854;2023-09-18T06:21:37;2.16;5.24;4.15
45312;PMS7003;68267;51.540;5.854;2023-09-18T06:34:56;0.36;3.61;2.95
45312;PMS7003;68267;51.540;5.854;2023-09-18T06:48:16;1.68;2.19;1.86
45312;PMS7003;68267;51.540;5.854;2023-09-18T07:01:36;0.01;2.52;1.86
45312;PMS7003;68267;51.540;5.854;2023-09-18T07:14:55;0.01;2.08;2.08
45312;PMS7003;68267;51.540;5.854;2023-09-18T07:28:15;4.69;3.06;1.97
45312;PMS7003;68267;51.540;5.854;2023-09-18T07:41:35;0.01;2.19;1.75
45312;PMS7003;68267;51.540;5.854;2023-09-18T07:54:55;7.93;2.62;1.97
45312;PMS7003;68267;51.540;5.854;2023-09-18T08:08:14;0.01;2.95;2.19
45312;PMS7003;68267;51.540;5.854;2023-09-18T08:21:34;0.01;2.08;1.86
45312;PMS7003;68267;51.540;5.854;2023-09-18T08:34:54;0.01;2.19;1.86
45312;PMS7003;68267;51.540;5.854;2023-09-18T08:48:13;0.0;3.28;2.08
45312;PMS7003;68267;51.540;5.854;2023-09-18T09:01:33;11.89;2.62;1.86
45312;PMS7003;68267;51.540;5.854;2023-09-18T09:14:53;0.01;2.52;1.97
45312;PMS7003;68267;51.540;5.854;2023-09-18T09:28:12;0.01;2.73;2.3
45312;PMS7003;68267;51.540;5.854;2023-09-18T09:41:32;0.0;3.28;2.62
45312;PMS7003;68267;51.540;5.854;2023-09-18T09:54:52;0.84;4.04;3.28
45312;PMS7003;68267;51.540;5.854;2023-09-18T10:08:11;0.01;3.17;2.41
45312;PMS7003;68267;51.540;5.854;2023-09-18T10:21:31;0.12;3.39;3.06
45312;PMS7003;68267;51.540;5.854;2023-09-18T10:34:51;0.36;3.61;2.84
45312;PMS7003;68267;51.540;5.854;2023-09-18T10:48:11;2.16;3.39;3.17
45312;PMS7003;68267;51.540;5.854;2023-09-18T11:01:30;3.6;3.39;2.73
45312;PMS7003;68267;51.540;5.854;2023-09-18T11:14:50;0.48;3.71;3.39
45312;PMS7003;68267;51.540;5.854;2023-09-18T11:28:10;4.81;4.15;3.5
45312;PMS7003;68267;51.540;5.854;2023-09-18T11:41:29;0.96;4.15;3.5
45312;PMS7003;68267;51.540;5.854;2023-09-18T11:54:49;0.24;3.5;2.95
45312;PMS7003;68267;51.540;5.854;2023-09-18T12:08:11;0.6;3.82;3.28
45312;PMS7003;68267;51.540;5.854;2023-09-18T12:21:31;0.24;3.5;3.28
45312;PMS7003;68267;51.540;5.854;2023-09-18T12:34:53;0.48;3.71;3.39
45312;PMS7003;68267;51.540;5.854;2023-09-18T12:48:13;0.12;3.39;3.28
45312;PMS7003;68267;51.540;5.854;2023-09-18T13:01:33;0.36;3.61;3.17
45312;PMS7003;68267;51.540;5.854;2023-09-18T13:14:55;8.77;2.95;2.62
45312;PMS7003;68267;51.540;5.854;2023-09-18T13:28:15;0.01;2.73;2.41
45312;PMS7003;68267;51.540;5.854;2023-09-18T13:41:34;0.01;3.06;2.52
45312;PMS7003;68267;51.540;5.854;2023-09-18T13:54:54;1.08;2.3;2.19
45312;PMS7003;68267;51.540;5.854;2023-09-18T14:08:14;0.01;2.84;2.41
45312;PMS7003;68267;51.540;5.854;2023-09-18T14:21:36;0.01;2.84;2.19
45312;PMS7003;68267;51.540;5.854;2023-09-18T14:34:56;0.01;2.52;2.19
45312;PMS7003;68267;51.540;5.854;2023-09-18T14:48:15;0.01;2.52;2.19
45312;PMS7003;68267;51.540;5.854;2023-09-18T15:01:35;0.01;2.62;1.97
45312;PMS7003;68267;51.540;5.854;2023-09-18T15:14:55;0.01;2.3;1.97
45312;PMS7003;68267;51.540;5.854;2023-09-18T15:28:17;0.01;1.97;1.75
45312;PMS7003;68267;51.540;5.854;2023-09-18T15:41:39;0.01;1.75;1.64
45312;PMS7003;68267;51.540;5.854;2023-09-18T15:54:59;0.01;1.97;1.86
45312;PMS7003;68267;51.540;5.854;2023-09-18T16:08:18;0.01;1.75;1.64
45312;PMS7003;68267;51.540;5.854;2023-09-18T16:21:41;0.01;1.75;1.64
45312;PMS7003;68267;51.540;5.854;2023-09-18T16:35:00;0.01;1.86;1.54
45312;PMS7003;68267;51.540;5.854;2023-09-18T16:48:20;0.01;2.08;1.64
45312;PMS7003;68267;51.540;5.854;2023-09-18T17:01:40;0.01;1.86;1.75
45312;PMS7003;68267;51.540;5.854;2023-09-18T17:14:59;0.01;2.62;2.08
45312;PMS7003;68267;51.540;5.854;2023-09-18T17:28:22;0.01;2.41;2.19
45312;PMS7003;68267;51.540;5.854;2023-09-18T17:41:41;0.12;3.39;3.06
45312;PMS7003;68267;51.540;5.854;2023-09-18T17:55:04;0.36;3.61;3.28
45312;PMS7003;68267;51.540;5.854;2023-09-18T18:08:23;0.84;4.04;3.5
45312;PMS7003;68267;51.540;5.854;2023-09-18T18:21:43;0.48;3.71;3.5
45312;PMS7003;68267;51.540;5.854;2023-09-18T18:35:05;0.84;4.04;3.5
45312;PMS7003;68267;51.540;5.854;2023-09-18T18:48:25;0.72;3.93;3.5
45312;PMS7003;68267;51.540;5.854;2023-09-18T19:01:44;0.48;3.71;3.39
45312;PMS7003;68267;51.540;5.854;2023-09-18T19:15:04;0.36;3.61;3.17
45312;PMS7003;68267;51.540;5.854;2023-09-18T19:28:24;0.12;3.39;3.28
45312;PMS7003;68267;51.540;5.854;2023-09-18T19:41:46;0.01;2.73;2.41
45312;PMS7003;68267;51.540;5.854;2023-09-18T19:55:06;10.93;3.06;2.3
45312;PMS7003;68267;51.540;5.854;2023-09-18T20:08:25;0.01;2.41;2.19
45312;PMS7003;68267;51.540;5.854;2023-09-18T20:21:45;7.81;3.5;2.19
45312;PMS7003;68267;51.540;5.854;2023-09-18T20:35:05;0.12;3.39;2.19
45312;PMS7003;68267;51.540;5.854;2023-09-18T20:48:27;0.01;3.17;2.08
45312;PMS7003;68267;51.540;5.854;2023-09-18T21:01:47;0.36;3.61;2.19
45312;PMS7003;68267;51.540;5.854;2023-09-18T21:15:07;0.01;2.95;2.19
45312;PMS7003;68267;51.540;5.854;2023-09-18T21:28:29;10.69;3.61;2.08
45312;PMS7003;68267;51.540;5.854;2023-09-18T21:41:48;0.0;3.28;2.19
45312;PMS7003;68267;51.540;5.854;2023-09-18T21:55:08;0.01;3.17;2.19
45312;PMS7003;68267;51.540;5.854;2023-09-18T22:08:28;16.33;3.93;2.19
45312;PMS7003;68267;51.540;5.854;2023-09-18T22:21:48;2.04;5.13;2.62
45312;PMS7003;68267;51.540;5.854;2023-09-18T22:35:07;0.36;3.61;2.08
45312;PMS7003;68267;51.540;5.854;2023-09-18T22:48:27;1.08;4.26;2.19
45312;PMS7003;68267;51.540;5.854;2023-09-18T23:01:47;6.01;4.04;2.19
45312;PMS7003;68267;51.540;5.854;2023-09-18T23:15:06;9.61;4.37;2.19
45312;PMS7003;68267;51.540;5.854;2023-09-18T23:28:26;19.81;4.15;2.19
45312;PMS7003;68267;51.540;5.854;2023-09-18T23:41:46;3.97;4.8;2.08
45312;PMS7003;68267;51.540;5.854;2023-09-18T23:55:05;1.08;4.26;1.86
